createdAt,value
2023-05-02T00:01:34.474Z,60.24
2023-05-02T00:04:01.071Z,60.69
2023-05-02T00:06:27.668Z,60.87
2023-05-02T00:08:54.132Z,60.68
2023-05-02T00:11:20.815Z,61.07
2023-05-02T00:13:47.128Z,61.21
2023-05-02T00:16:13.444Z,61.40
2023-05-02T00:18:39.754Z,61.79
2023-05-02T00:21:07.001Z,62.04
2023-05-02T00:23:33.318Z,62.52
2023-05-02T00:25:59.871Z,62.32
2023-05-02T00:28:26.975Z,62.50
2023-05-02T00:30:53.739Z,62.50
2023-05-02T00:33:20.076Z,62.42
2023-05-02T00:35:46.443Z,62.39
2023-05-02T00:38:12.884Z,62.61
2023-05-02T00:40:46.788Z,62.83
2023-05-02T00:43:14.092Z,63.31
2023-05-02T00:45:43.356Z,63.42
2023-05-02T00:48:11.033Z,63.59
2023-05-02T00:50:40.336Z,63.72
2023-05-02T00:53:07.837Z,63.90
2023-05-02T00:55:34.655Z,63.98
2023-05-02T00:58:03.385Z,63.97
2023-05-02T01:01:07.102Z,63.94
2023-05-02T01:03:42.185Z,63.79
2023-05-02T01:06:33.760Z,63.83
2023-05-02T01:09:34.392Z,63.79
2023-05-02T01:12:10.060Z,64.19
2023-05-02T01:14:42.861Z,64.55
2023-05-02T01:17:13.150Z,64.68
2023-05-02T01:19:43.553Z,65.02
2023-05-02T01:22:11.980Z,65.23
2023-05-02T01:24:59.976Z,65.43
2023-05-02T01:27:57.941Z,65.57
2023-05-02T01:30:26.735Z,65.64
2023-05-02T01:32:55.297Z,65.85
2023-05-02T01:35:23.506Z,65.60
2023-05-02T01:37:52.032Z,65.58
2023-05-02T01:40:20.588Z,65.86
2023-05-02T01:42:51.779Z,65.66
2023-05-02T01:45:20.796Z,65.92
2023-05-02T01:47:48.509Z,65.85
2023-05-02T01:50:18.993Z,66.14
2023-05-02T01:52:47.294Z,65.63
2023-05-02T01:55:15.122Z,65.66
2023-05-02T01:57:44.299Z,65.62
2023-05-02T02:00:12.734Z,65.41
2023-05-02T02:02:45.069Z,65.46
2023-05-02T02:05:14.579Z,65.45
2023-05-02T02:07:40.958Z,65.37
2023-05-02T02:10:07.883Z,65.60
2023-05-02T02:12:45.333Z,65.52
2023-05-02T02:15:31.973Z,65.65
2023-05-02T02:18:09.396Z,65.36
2023-05-02T02:20:36.200Z,65.30
2023-05-02T02:23:06.701Z,65.55
2023-05-02T02:25:34.463Z,65.36
2023-05-02T02:28:01.090Z,65.66
2023-05-02T02:30:27.758Z,65.74
2023-05-02T02:32:54.189Z,65.72
2023-05-02T02:35:20.771Z,65.68
2023-05-02T02:38:26.780Z,65.70
2023-05-02T02:41:11.737Z,65.74
2023-05-02T02:43:53.625Z,65.63
2023-05-02T02:46:34.541Z,65.71
2023-05-02T02:49:45.684Z,65.65
2023-05-02T02:52:32.660Z,65.76
2023-05-02T02:55:16.181Z,65.39
2023-05-02T02:57:57.861Z,65.16
2023-05-02T03:00:27.314Z,64.92
2023-05-02T03:02:55.353Z,64.70
2023-05-02T03:05:22.916Z,64.79
2023-05-02T03:07:50.992Z,64.54
2023-05-02T03:10:17.896Z,64.37
2023-05-02T03:12:44.230Z,64.56
2023-05-02T03:15:32.054Z,64.54
2023-05-02T03:17:59.257Z,64.69
2023-05-02T03:20:25.714Z,64.79
2023-05-02T03:22:53.387Z,64.72
2023-05-02T03:25:19.715Z,64.64
2023-05-02T03:27:48.703Z,64.71
2023-05-02T03:30:15.440Z,64.62
2023-05-02T03:32:41.863Z,64.56
2023-05-02T03:35:08.561Z,64.60
2023-05-02T03:37:39.495Z,64.73
2023-05-02T03:40:06.735Z,64.32
2023-05-02T03:42:39.856Z,64.25
2023-05-02T03:45:10.300Z,64.34
2023-05-02T03:47:36.703Z,64.36
2023-05-02T03:50:03.595Z,64.41
2023-05-02T03:52:31.057Z,64.55
2023-05-02T03:54:57.725Z,64.52
2023-05-02T03:57:24.133Z,64.45
2023-05-02T03:59:50.530Z,64.52
2023-05-02T04:02:25.378Z,64.63
2023-05-02T04:04:52.004Z,64.67
2023-05-02T04:07:21.061Z,64.58
2023-05-02T04:09:55.076Z,64.60
2023-05-02T04:12:21.522Z,64.82
2023-05-02T04:14:50.997Z,64.98
2023-05-02T04:17:17.399Z,65.45
2023-05-02T04:19:48.855Z,65.74
2023-05-02T04:22:16.256Z,66.07
2023-05-02T04:24:47.061Z,66.46
2023-05-02T04:27:15.464Z,66.80
2023-05-02T04:29:42.118Z,67.07
2023-05-02T04:32:10.184Z,67.24
2023-05-02T04:34:36.690Z,67.29
2023-05-02T04:37:03.343Z,67.42
2023-05-02T04:39:30.981Z,67.76
2023-05-02T04:42:01.726Z,67.83
2023-05-02T04:44:31.180Z,67.70
2023-05-02T04:46:57.775Z,68.04
2023-05-02T04:49:24.099Z,68.26
2023-05-02T04:51:52.565Z,68.39
2023-05-02T04:54:19.542Z,68.53
2023-05-02T04:56:47.533Z,68.98
2023-05-02T04:59:14.604Z,69.17
2023-05-02T05:01:41.110Z,69.22
2023-05-02T05:04:09.051Z,69.64
2023-05-02T05:06:35.910Z,69.68
2023-05-02T05:09:03.874Z,69.35
2023-05-02T05:11:30.517Z,69.63
2023-05-02T05:13:57.101Z,69.28
2023-05-02T05:16:24.002Z,69.22
2023-05-02T05:18:53.707Z,68.67
2023-05-02T05:21:20.133Z,68.55
2023-05-02T05:23:47.571Z,68.36
2023-05-02T05:26:19.143Z,68.58
2023-05-02T05:28:47.529Z,68.30
2023-05-02T05:31:17.645Z,68.28
2023-05-02T05:33:47.794Z,68.04
2023-05-02T05:36:17.603Z,67.92
2023-05-02T05:38:44.533Z,67.77
2023-05-02T05:41:11.414Z,67.62
2023-05-02T05:43:41.829Z,67.20
2023-05-02T05:46:08.593Z,67.67
2023-05-02T05:48:36.768Z,67.47
2023-05-02T05:51:05.153Z,67.14
2023-05-02T05:53:32.413Z,66.42
2023-05-02T05:56:07.887Z,66.41
2023-05-02T05:58:34.292Z,66.31
2023-05-02T06:01:00.735Z,66.12
2023-05-02T06:03:27.087Z,66.07
2023-05-02T06:05:54.709Z,65.96
2023-05-02T06:08:21.521Z,65.61
2023-05-02T06:10:47.859Z,65.22
2023-05-02T06:13:14.537Z,65.41
2023-05-02T06:15:43.086Z,65.27
2023-05-02T06:18:09.587Z,65.36
2023-05-02T06:20:37.025Z,65.04
2023-05-02T06:23:03.674Z,65.15
2023-05-02T06:25:30.158Z,64.55
2023-05-02T06:27:56.469Z,64.05
2023-05-02T06:30:22.854Z,63.85
2023-05-02T06:32:49.193Z,64.29
2023-05-02T06:35:16.009Z,63.71
2023-05-02T06:37:42.351Z,63.97
2023-05-02T06:40:09.987Z,63.89
2023-05-02T06:42:36.329Z,63.66
2023-05-02T06:45:02.830Z,63.85
2023-05-02T06:47:29.542Z,63.81
2023-05-02T06:49:55.941Z,63.81
2023-05-02T06:52:22.325Z,63.33
2023-05-02T06:54:48.775Z,62.90
2023-05-02T06:57:15.456Z,63.29
2023-05-02T06:59:41.967Z,63.16
2023-05-02T07:02:08.439Z,62.96
2023-05-02T07:04:34.805Z,62.69
2023-05-02T07:07:01.208Z,62.85
2023-05-02T07:09:27.565Z,63.39
2023-05-02T07:11:53.900Z,63.97
2023-05-02T07:14:20.718Z,64.23
2023-05-02T07:16:47.149Z,64.88
2023-05-02T07:19:13.554Z,64.86
2023-05-02T07:21:39.878Z,65.00
2023-05-02T07:24:06.213Z,65.02
2023-05-02T07:26:32.633Z,64.12
2023-05-02T07:28:58.969Z,63.66
2023-05-02T07:31:25.401Z,63.21
2023-05-02T07:33:51.799Z,63.29
2023-05-02T07:36:18.155Z,63.00
2023-05-02T07:38:44.521Z,62.83
2023-05-02T07:41:10.925Z,63.09
2023-05-02T07:43:37.237Z,62.77
2023-05-02T07:46:05.516Z,62.91
2023-05-02T07:48:32.147Z,63.18
2023-05-02T07:51:07.157Z,62.76
2023-05-02T07:53:33.978Z,62.52
2023-05-02T07:56:00.415Z,62.04
2023-05-02T07:58:27.775Z,61.88
2023-05-02T08:00:54.113Z,61.76
2023-05-02T08:03:20.643Z,61.99
2023-05-02T08:05:47.039Z,61.89
2023-05-02T08:08:13.362Z,61.62
2023-05-02T08:10:39.681Z,61.66
2023-05-02T08:13:06.238Z,61.90
2023-05-02T08:15:32.669Z,61.86
2023-05-02T08:17:59.710Z,62.08
2023-05-02T08:20:26.188Z,62.60
2023-05-02T08:22:52.533Z,62.93
2023-05-02T08:25:18.992Z,63.62
2023-05-02T08:27:45.645Z,63.51
2023-05-02T08:30:12.794Z,63.73
2023-05-02T08:32:39.225Z,63.66
2023-05-02T08:35:06.607Z,64.05
2023-05-02T08:37:32.930Z,64.02
2023-05-02T08:40:00.504Z,64.28
2023-05-02T08:42:28.541Z,64.63
2023-05-02T08:44:54.887Z,64.72
2023-05-02T08:47:23.309Z,64.55
2023-05-02T08:49:50.207Z,64.56
2023-05-02T08:52:19.278Z,64.78
2023-05-02T08:54:46.438Z,64.70
2023-05-02T08:57:12.853Z,64.91
2023-05-02T08:59:39.183Z,65.23
2023-05-02T09:02:23.466Z,64.89
2023-05-02T09:04:55.069Z,64.91
2023-05-02T09:07:22.060Z,64.45
2023-05-02T09:09:48.628Z,64.13
2023-05-02T09:12:16.177Z,64.05
2023-05-02T09:14:43.783Z,64.12
2023-05-02T09:17:10.366Z,63.64
2023-05-02T09:19:36.793Z,63.37
2023-05-02T09:22:03.170Z,63.00
2023-05-02T09:24:29.839Z,62.79
2023-05-02T09:27:02.716Z,62.40
2023-05-02T09:29:36.048Z,62.16
2023-05-02T09:32:04.637Z,61.75
2023-05-02T09:34:31.686Z,60.09
2023-05-02T09:36:58.327Z,59.24
2023-05-02T09:39:26.490Z,59.46
2023-05-02T09:41:53.082Z,58.70
2023-05-02T09:44:22.152Z,58.96
2023-05-02T09:46:57.263Z,58.34
2023-05-02T09:49:46.468Z,57.58
2023-05-02T09:52:18.040Z,57.72
2023-05-02T09:54:46.483Z,57.86
2023-05-02T09:57:13.477Z,56.77
2023-05-02T09:59:40.893Z,56.63
2023-05-02T10:02:12.078Z,55.73
2023-05-02T10:04:39.858Z,55.54
2023-05-02T10:07:10.131Z,55.91
2023-05-02T10:09:40.661Z,55.08
2023-05-02T10:12:08.209Z,55.49
2023-05-02T10:14:42.487Z,54.47
2023-05-02T10:17:14.200Z,54.38
2023-05-02T10:20:06.150Z,54.21
2023-05-02T10:22:34.476Z,53.38
2023-05-02T10:25:03.198Z,52.46
2023-05-02T10:27:31.817Z,52.25
2023-05-02T10:29:59.314Z,52.27
2023-05-02T10:32:29.282Z,50.85
2023-05-02T10:35:04.064Z,51.57
2023-05-02T10:37:33.851Z,51.42
2023-05-02T10:40:00.589Z,50.61
2023-05-02T10:42:28.534Z,49.84
2023-05-02T10:44:54.935Z,49.88
2023-05-02T10:47:27.650Z,50.55
2023-05-02T10:50:04.726Z,50.26
2023-05-02T10:52:38.878Z,49.93
2023-05-02T10:55:15.896Z,49.02
2023-05-02T10:58:21.336Z,49.29
2023-05-02T11:00:47.802Z,49.48
2023-05-02T11:03:14.330Z,49.53
2023-05-02T11:06:09.509Z,50.20
2023-05-02T11:08:36.212Z,49.79
2023-05-02T11:11:38.151Z,48.80
2023-05-02T11:14:04.504Z,48.49
2023-05-02T11:16:58.972Z,47.93
2023-05-02T11:19:28.091Z,48.06
2023-05-02T11:22:26.946Z,48.53
2023-05-02T11:24:53.995Z,47.76
2023-05-02T11:27:29.328Z,47.06
2023-05-02T11:29:57.340Z,46.10
2023-05-02T11:32:25.406Z,45.96
2023-05-02T11:34:52.775Z,45.32
2023-05-02T11:37:21.027Z,44.70
2023-05-02T11:39:47.430Z,45.25
2023-05-02T11:42:30.450Z,47.23
2023-05-02T11:45:01.340Z,47.39
2023-05-02T11:47:29.388Z,46.81
2023-05-02T11:49:57.459Z,46.68
2023-05-02T11:52:24.408Z,47.48
2023-05-02T11:54:55.368Z,46.17
2023-05-02T11:57:22.664Z,46.55
2023-05-02T11:59:58.122Z,45.25
2023-05-02T12:02:44.318Z,45.36
2023-05-02T12:05:13.184Z,46.39
2023-05-02T12:07:41.775Z,47.16
2023-05-02T12:10:09.456Z,44.98
2023-05-02T12:12:37.058Z,44.94
2023-05-02T12:15:04.950Z,44.46
2023-05-02T12:17:32.296Z,44.67
2023-05-02T12:19:59.575Z,45.47
2023-05-02T12:22:28.947Z,45.48
2023-05-02T12:24:55.547Z,43.89
2023-05-02T12:27:21.964Z,43.89
2023-05-02T12:29:49.193Z,44.44
2023-05-02T12:32:27.640Z,45.32
2023-05-02T12:34:54.232Z,43.64
2023-05-02T12:37:24.843Z,43.49
2023-05-02T12:39:52.581Z,43.98
2023-05-02T12:42:24.075Z,42.91
2023-05-02T12:44:54.632Z,44.37
2023-05-02T12:47:22.698Z,42.05
2023-05-02T12:49:50.499Z,43.07
2023-05-02T12:52:21.295Z,42.52
2023-05-02T12:54:48.430Z,42.46
2023-05-02T12:57:26.147Z,43.33
2023-05-02T12:59:54.121Z,41.10
2023-05-02T13:02:21.468Z,42.26
2023-05-02T13:04:47.911Z,40.93
2023-05-02T13:07:14.281Z,41.25
2023-05-02T13:09:40.738Z,43.29
2023-05-02T13:12:07.500Z,42.50
2023-05-02T13:14:33.903Z,41.76
2023-05-02T13:17:00.601Z,42.30
2023-05-02T13:19:30.796Z,41.28
2023-05-02T13:21:57.711Z,41.47
2023-05-02T13:24:24.067Z,41.94
2023-05-02T13:26:51.340Z,41.03
2023-05-02T13:29:17.684Z,38.48
2023-05-02T13:31:44.215Z,39.28
2023-05-02T13:34:10.564Z,39.17
2023-05-02T13:36:40.621Z,39.12
2023-05-02T13:39:06.955Z,38.07
2023-05-02T13:41:33.265Z,40.75
2023-05-02T13:43:59.569Z,38.83
2023-05-02T13:46:26.036Z,39.20
2023-05-02T13:48:52.434Z,40.04
2023-05-02T13:51:18.784Z,40.15
2023-05-02T13:53:45.229Z,38.17
2023-05-02T13:56:11.574Z,39.38
2023-05-02T13:58:37.885Z,39.24
2023-05-02T14:01:04.438Z,38.54
2023-05-02T14:03:30.943Z,38.85
2023-05-02T14:05:57.387Z,38.47
2023-05-02T14:08:23.711Z,38.54
2023-05-02T14:10:50.031Z,36.67
2023-05-02T14:13:16.331Z,38.71
2023-05-02T14:15:42.693Z,37.61
2023-05-02T14:18:09.369Z,38.15
2023-05-02T14:20:35.822Z,38.41
2023-05-02T14:23:02.145Z,38.28
2023-05-02T14:25:28.478Z,39.05
2023-05-02T14:27:54.782Z,40.05
2023-05-02T14:30:21.352Z,40.24
2023-05-02T14:32:47.720Z,40.38
2023-05-02T14:35:14.082Z,40.46
2023-05-02T14:37:40.514Z,38.89
2023-05-02T14:40:07.887Z,37.56
2023-05-02T14:42:34.639Z,38.92
2023-05-02T14:45:02.256Z,38.15
2023-05-02T14:47:32.512Z,36.85
2023-05-02T14:49:59.066Z,37.12
2023-05-02T14:52:25.452Z,38.60
2023-05-02T14:54:51.818Z,37.76
2023-05-02T14:57:18.290Z,36.74
2023-05-02T14:59:45.040Z,37.19
2023-05-02T15:02:11.575Z,36.73
2023-05-02T15:04:38.097Z,35.79
2023-05-02T15:07:04.598Z,36.96
2023-05-02T15:09:31.011Z,36.29
2023-05-02T15:11:57.484Z,37.44
2023-05-02T15:14:23.915Z,37.21
2023-05-02T15:16:50.667Z,37.05
2023-05-02T15:19:17.122Z,36.29
2023-05-02T15:21:43.440Z,35.95
2023-05-02T15:24:10.508Z,36.13
2023-05-02T15:26:36.922Z,35.52
2023-05-02T15:29:04.347Z,35.99
2023-05-02T15:31:31.295Z,36.37
2023-05-02T15:33:57.724Z,36.16
2023-05-02T15:36:28.870Z,35.33
2023-05-02T15:38:56.115Z,35.13
2023-05-02T15:41:24.541Z,35.01
2023-05-02T15:43:50.850Z,34.90
2023-05-02T15:46:17.295Z,34.50
2023-05-02T15:48:43.618Z,33.96
2023-05-02T15:51:10.701Z,33.50
2023-05-02T15:53:42.444Z,34.20
2023-05-02T15:56:12.082Z,35.64
2023-05-02T15:58:39.456Z,36.28
2023-05-02T16:01:06.106Z,35.22
2023-05-02T16:03:33.988Z,35.07
2023-05-02T16:06:00.865Z,36.12
2023-05-02T16:08:28.034Z,35.74
2023-05-02T16:10:54.568Z,35.26
2023-05-02T16:13:21.058Z,34.86
2023-05-02T16:15:48.187Z,34.48
2023-05-02T16:18:15.286Z,35.54
2023-05-02T16:20:42.050Z,34.90
2023-05-02T16:23:09.055Z,34.50
2023-05-02T16:25:35.822Z,34.98
2023-05-02T16:28:02.781Z,35.06
2023-05-02T16:30:29.119Z,35.34
2023-05-02T16:32:55.586Z,35.42
2023-05-02T16:35:21.983Z,36.41
2023-05-02T16:37:49.317Z,36.97
2023-05-02T16:40:15.852Z,37.30
2023-05-02T16:42:42.280Z,37.30
2023-05-02T16:45:08.988Z,37.15
2023-05-02T16:47:35.896Z,37.53
2023-05-02T16:50:03.104Z,37.84
2023-05-02T16:52:29.762Z,36.29
2023-05-02T16:54:56.521Z,36.42
2023-05-02T16:57:23.164Z,36.35
2023-05-02T16:59:51.734Z,36.72
2023-05-02T17:02:19.934Z,35.99
2023-05-02T17:04:46.557Z,35.74
2023-05-02T17:07:13.025Z,36.00
2023-05-02T17:09:40.807Z,35.88
2023-05-02T17:12:08.628Z,35.62
2023-05-02T17:14:34.953Z,35.50
2023-05-02T17:17:01.454Z,35.69
2023-05-02T17:19:27.991Z,36.71
2023-05-02T17:21:54.814Z,36.91
2023-05-02T17:24:21.271Z,37.11
2023-05-02T17:26:47.657Z,37.66
2023-05-02T17:29:14.230Z,37.37
2023-05-02T17:31:41.032Z,36.94
2023-05-02T17:34:07.664Z,37.52
2023-05-02T17:36:35.252Z,36.87
2023-05-02T17:39:02.194Z,36.78
2023-05-02T17:41:28.640Z,36.08
2023-05-02T17:43:55.093Z,36.06
2023-05-02T17:46:21.606Z,36.17
2023-05-02T17:48:48.935Z,36.41
2023-05-02T17:51:15.305Z,36.23
2023-05-02T17:53:42.512Z,36.27
2023-05-02T17:56:08.933Z,36.33
2023-05-02T17:58:36.425Z,36.33
2023-05-02T18:01:11.082Z,35.99
2023-05-02T18:03:38.224Z,35.83
2023-05-02T18:06:04.902Z,36.74
2023-05-02T18:08:31.360Z,36.62
2023-05-02T18:10:58.683Z,36.33
2023-05-02T18:13:26.064Z,36.73
2023-05-02T18:15:59.658Z,36.60
2023-05-02T18:18:26.160Z,36.24
2023-05-02T18:20:52.535Z,36.17
2023-05-02T18:23:18.908Z,36.26
2023-05-02T18:25:45.431Z,36.34
2023-05-02T18:28:13.237Z,36.26
2023-05-02T18:30:39.790Z,36.58
2023-05-02T18:33:07.474Z,37.21
2023-05-02T18:35:33.898Z,37.54
2023-05-02T18:38:00.337Z,37.70
2023-05-02T18:40:27.122Z,37.35
2023-05-02T18:42:53.507Z,38.04
2023-05-02T18:45:20.938Z,37.96
2023-05-02T18:47:47.366Z,38.13
2023-05-02T18:50:13.805Z,38.11
2023-05-02T18:52:40.260Z,38.36
2023-05-02T18:55:07.268Z,38.40
2023-05-02T18:57:33.917Z,38.43
2023-05-02T19:00:00.895Z,38.65
2023-05-02T19:02:27.657Z,38.40
2023-05-02T19:04:55.162Z,38.51
2023-05-02T19:07:21.588Z,39.11
2023-05-02T19:09:48.141Z,39.34
2023-05-02T19:12:14.614Z,39.41
2023-05-02T19:14:41.153Z,39.87
2023-05-02T19:17:07.616Z,40.13
2023-05-02T19:19:34.027Z,39.92
2023-05-02T19:22:00.397Z,40.29
2023-05-02T19:24:26.861Z,40.20
2023-05-02T19:26:53.562Z,40.42
2023-05-02T19:29:20.011Z,40.75
2023-05-02T19:31:46.513Z,40.80
2023-05-02T19:34:13.036Z,40.98
2023-05-02T19:36:39.466Z,41.23
2023-05-02T19:39:06.207Z,41.40
2023-05-02T19:41:32.665Z,41.63
2023-05-02T19:43:59.866Z,41.74
2023-05-02T19:46:26.897Z,42.01
2023-05-02T19:48:53.433Z,41.84
2023-05-02T19:51:25.535Z,41.98
2023-05-02T19:53:58.293Z,42.17
2023-05-02T19:56:26.076Z,42.26
2023-05-02T19:58:53.422Z,42.50
2023-05-02T20:01:19.958Z,42.77
2023-05-02T20:03:46.790Z,42.85
2023-05-02T20:06:13.249Z,42.99
2023-05-02T20:08:39.658Z,42.88
2023-05-02T20:11:06.062Z,42.89
2023-05-02T20:13:32.458Z,43.13
2023-05-02T20:15:58.827Z,43.24
2023-05-02T20:18:25.217Z,43.61
2023-05-02T20:20:51.592Z,43.50
2023-05-02T20:23:17.974Z,43.91
2023-05-02T20:25:44.661Z,43.91
2023-05-02T20:28:11.310Z,44.23
2023-05-02T20:30:39.744Z,44.30
2023-05-02T20:33:14.913Z,44.44
2023-05-02T20:35:42.469Z,44.43
2023-05-02T20:38:09.690Z,44.55
2023-05-02T20:40:40.006Z,44.72
2023-05-02T20:43:06.482Z,44.84
2023-05-02T20:45:33.310Z,45.11
2023-05-02T20:47:59.721Z,45.41
2023-05-02T20:50:26.545Z,45.33
2023-05-02T20:52:52.948Z,45.63
2023-05-02T20:55:20.274Z,45.96
2023-05-02T20:57:51.004Z,46.12
2023-05-02T21:00:18.153Z,46.19
2023-05-02T21:02:44.569Z,46.17
2023-05-02T21:05:11.088Z,46.13
2023-05-02T21:07:40.297Z,46.24
2023-05-02T21:10:10.086Z,46.65
2023-05-02T21:12:36.616Z,46.82
2023-05-02T21:15:03.109Z,47.26
2023-05-02T21:17:29.486Z,47.33
2023-05-02T21:19:55.929Z,47.59
2023-05-02T21:22:22.289Z,48.04
2023-05-02T21:24:50.069Z,47.99
2023-05-02T21:27:16.525Z,48.06
2023-05-02T21:29:43.010Z,48.33
2023-05-02T21:32:09.461Z,48.77
2023-05-02T21:34:36.080Z,48.87
2023-05-02T21:37:02.427Z,49.09
2023-05-02T21:39:28.812Z,49.09
2023-05-02T21:41:56.162Z,49.36
2023-05-02T21:44:22.544Z,49.35
2023-05-02T21:46:50.606Z,49.79
2023-05-02T21:49:17.140Z,49.66
2023-05-02T21:51:43.521Z,49.68
2023-05-02T21:54:09.962Z,50.06
2023-05-02T21:56:36.407Z,50.35
2023-05-02T21:59:03.391Z,50.49
2023-05-02T22:01:29.934Z,50.81
2023-05-02T22:03:57.920Z,51.08
2023-05-02T22:06:24.980Z,51.06
2023-05-02T22:08:52.270Z,51.67
2023-05-02T22:11:21.530Z,51.73
2023-05-02T22:13:48.361Z,51.77
2023-05-02T22:16:15.320Z,52.28
2023-05-02T22:18:44.682Z,52.24
2023-05-02T22:21:12.064Z,52.57
2023-05-02T22:23:38.493Z,52.56
2023-05-02T22:26:04.872Z,52.48
2023-05-02T22:28:31.259Z,52.65
2023-05-02T22:30:57.764Z,52.78
2023-05-02T22:33:24.314Z,52.91
2023-05-02T22:35:50.698Z,53.38
2023-05-02T22:38:17.063Z,54.21
2023-05-02T22:40:43.470Z,54.54
2023-05-02T22:43:10.049Z,54.23
2023-05-02T22:45:37.218Z,54.53
2023-05-02T22:48:04.723Z,54.69
2023-05-02T22:50:31.825Z,54.85
2023-05-02T22:52:59.409Z,55.04
2023-05-02T22:55:25.892Z,55.44
2023-05-02T22:57:52.413Z,55.67
2023-05-02T23:00:18.771Z,55.74
2023-05-02T23:02:45.693Z,56.00
2023-05-02T23:05:12.147Z,55.93
2023-05-02T23:07:38.679Z,55.91
2023-05-02T23:10:06.235Z,55.60
2023-05-02T23:12:32.741Z,55.23
2023-05-02T23:14:59.120Z,55.00
2023-05-02T23:17:25.657Z,54.72
2023-05-02T23:19:52.108Z,54.82
2023-05-02T23:22:18.490Z,55.06
2023-05-02T23:24:47.324Z,54.90
2023-05-02T23:27:13.911Z,54.88
2023-05-02T23:29:40.419Z,54.86
2023-05-02T23:32:08.016Z,55.22
2023-05-02T23:34:38.140Z,55.49
2023-05-02T23:37:06.379Z,55.58
2023-05-02T23:39:33.300Z,55.79
2023-05-02T23:42:00.555Z,56.00
2023-05-02T23:44:27.121Z,56.24
2023-05-02T23:46:53.583Z,56.68
2023-05-02T23:49:20.312Z,57.08
2023-05-02T23:51:46.858Z,56.84
2023-05-02T23:54:13.439Z,57.17
2023-05-02T23:56:39.837Z,57.24
2023-05-02T23:59:06.202Z,57.36
